sensor_id;sensor_type;location;lat;lon;timestamp;temperature;humidity
49236;DHT22;35067;48.134;8.378;2023-05-29T00:00:14;11.20;97.00
49236;DHT22;35067;48.134;8.378;2023-05-29T00:01:19;11.00;89.50
49236;DHT22;35067;48.134;8.378;2023-05-29T00:02:21;10.90;89.50
49236;DHT22;35067;48.134;8.378;2023-05-29T00:03:22;11.00;89.90
49236;DHT22;35067;48.134;8.378;2023-05-29T00:04:22;10.90;90.00
49236;DHT22;35067;48.134;8.378;2023-05-29T00:05:23;10.90;90.00
49236;DHT22;35067;48.134;8.378;2023-05-29T00:06:24;10.90;90.10
49236;DHT22;35067;48.134;8.378;2023-05-29T00:07:25;10.90;90.20
49236;DHT22;35067;48.134;8.378;2023-05-29T00:08:26;11.00;90.40
49236;DHT22;35067;48.134;8.378;2023-05-29T00:09:26;10.90;90.40
49236;DHT22;35067;48.134;8.378;2023-05-29T00:10:28;10.80;90.80
49236;DHT22;35067;48.134;8.378;2023-05-29T00:11:31;10.80;91.10
49236;DHT22;35067;48.134;8.378;2023-05-29T00:12:32;10.70;91.30
49236;DHT22;35067;48.134;8.378;2023-05-29T00:13:32;10.60;91.50
49236;DHT22;35067;48.134;8.378;2023-05-29T00:14:33;10.70;92.00
49236;DHT22;35067;48.134;8.378;2023-05-29T00:15:35;10.60;91.90
49236;DHT22;35067;48.134;8.378;2023-05-29T00:16:36;10.60;91.80
49236;DHT22;35067;48.134;8.378;2023-05-29T00:17:38;10.60;91.60
49236;DHT22;35067;48.134;8.378;2023-05-29T00:18:39;10.60;91.50
49236;DHT22;35067;48.134;8.378;2023-05-29T00:19:45;10.60;91.60
49236;DHT22;35067;48.134;8.378;2023-05-29T00:20:46;10.90;91.60
49236;DHT22;35067;48.134;8.378;2023-05-29T00:21:47;10.50;91.60
49236;DHT22;35067;48.134;8.378;2023-05-29T00:22:48;10.60;91.50
49236;DHT22;35067;48.134;8.378;2023-05-29T00:23:49;10.50;91.30
49236;DHT22;35067;48.134;8.378;2023-05-29T00:24:50;10.50;91.40
49236;DHT22;35067;48.134;8.378;2023-05-29T00:25:51;10.50;91.30
49236;DHT22;35067;48.134;8.378;2023-05-29T00:26:52;10.50;91.30
49236;DHT22;35067;48.134;8.378;2023-05-29T00:27:53;10.50;91.30
49236;DHT22;35067;48.134;8.378;2023-05-29T00:28:53;10.50;91.30
49236;DHT22;35067;48.134;8.378;2023-05-29T00:29:54;10.50;91.20
49236;DHT22;35067;48.134;8.378;2023-05-29T00:30:55;10.50;91.50
49236;DHT22;35067;48.134;8.378;2023-05-29T00:31:57;10.90;91.80
49236;DHT22;35067;48.134;8.378;2023-05-29T00:32:59;10.40;92.40
49236;DHT22;35067;48.134;8.378;2023-05-29T00:34:00;10.30;91.80
49236;DHT22;35067;48.134;8.378;2023-05-29T00:35:02;10.30;92.30
49236;DHT22;35067;48.134;8.378;2023-05-29T00:36:05;10.30;92.50
49236;DHT22;35067;48.134;8.378;2023-05-29T00:37:06;10.30;92.70
49236;DHT22;35067;48.134;8.378;2023-05-29T00:38:07;10.40;99.90
49236;DHT22;35067;48.134;8.378;2023-05-29T00:39:07;10.30;99.90
49236;DHT22;35067;48.134;8.378;2023-05-29T00:40:10;11.00;93.30
49236;DHT22;35067;48.134;8.378;2023-05-29T00:41:15;10.20;99.90
49236;DHT22;35067;48.134;8.378;2023-05-29T00:42:16;10.20;93.20
49236;DHT22;35067;48.134;8.378;2023-05-29T00:43:17;10.20;99.90
49236;DHT22;35067;48.134;8.378;2023-05-29T00:44:18;10.00;99.90
49236;DHT22;35067;48.134;8.378;2023-05-29T00:45:20;10.20;93.10
49236;DHT22;35067;48.134;8.378;2023-05-29T00:46:21;10.30;93.10
49236;DHT22;35067;48.134;8.378;2023-05-29T00:47:22;10.30;93.00
49236;DHT22;35067;48.134;8.378;2023-05-29T00:48:24;10.30;92.70
49236;DHT22;35067;48.134;8.378;2023-05-29T00:49:25;10.40;92.80
49236;DHT22;35067;48.134;8.378;2023-05-29T00:50:27;10.40;92.80
49236;DHT22;35067;48.134;8.378;2023-05-29T00:51:28;10.60;92.70
49236;DHT22;35067;48.134;8.378;2023-05-29T00:52:29;10.40;92.50
49236;DHT22;35067;48.134;8.378;2023-05-29T00:53:30;10.50;92.30
49236;DHT22;35067;48.134;8.378;2023-05-29T00:54:32;10.80;92.30
49236;DHT22;35067;48.134;8.378;2023-05-29T00:55:34;10.40;92.20
49236;DHT22;35067;48.134;8.378;2023-05-29T00:56:35;10.90;92.20
49236;DHT22;35067;48.134;8.378;2023-05-29T00:57:36;10.50;92.10
49236;DHT22;35067;48.134;8.378;2023-05-29T00:58:39;10.50;92.60
49236;DHT22;35067;48.134;8.378;2023-05-29T00:59:42;10.80;92.30
49236;DHT22;35067;48.134;8.378;2023-05-29T01:00:43;10.70;92.30
49236;DHT22;35067;48.134;8.378;2023-05-29T01:01:45;10.70;92.20
49236;DHT22;35067;48.134;8.378;2023-05-29T01:02:51;10.40;92.20
49236;DHT22;35067;48.134;8.378;2023-05-29T01:03:55;10.40;92.30
49236;DHT22;35067;48.134;8.378;2023-05-29T01:04:57;10.30;92.20
49236;DHT22;35067;48.134;8.378;2023-05-29T01:05:58;10.40;92.30
49236;DHT22;35067;48.134;8.378;2023-05-29T01:07:00;10.80;92.30
49236;DHT22;35067;48.134;8.378;2023-05-29T01:08:02;10.40;92.60
49236;DHT22;35067;48.134;8.378;2023-05-29T01:09:03;10.40;92.60
49236;DHT22;35067;48.134;8.378;2023-05-29T01:10:05;10.40;92.40
49236;DHT22;35067;48.134;8.378;2023-05-29T01:11:25;10.50;99.70
49236;DHT22;35067;48.134;8.378;2023-05-29T01:12:38;10.30;92.40
49236;DHT22;35067;48.134;8.378;2023-05-29T01:13:50;10.20;92.60
49236;DHT22;35067;48.134;8.378;2023-05-29T01:16:51;10.10;92.80
49236;DHT22;35067;48.134;8.378;2023-05-29T01:21:14;10.00;93.20
49236;DHT22;35067;48.134;8.378;2023-05-29T01:25:19;9.90;93.60
49236;DHT22;35067;48.134;8.378;2023-05-29T01:27:47;9.90;93.60
49236;DHT22;35067;48.134;8.378;2023-05-29T01:28:52;9.90;93.90
49236;DHT22;35067;48.134;8.378;2023-05-29T01:29:55;9.80;94.50
49236;DHT22;35067;48.134;8.378;2023-05-29T01:30:57;9.80;94.60
49236;DHT22;35067;48.134;8.378;2023-05-29T01:32:00;9.80;94.60
49236;DHT22;35067;48.134;8.378;2023-05-29T01:33:02;10.00;94.60
49236;DHT22;35067;48.134;8.378;2023-05-29T01:34:03;9.50;99.90
49236;DHT22;35067;48.134;8.378;2023-05-29T01:35:04;9.90;99.90
49236;DHT22;35067;48.134;8.378;2023-05-29T01:36:11;9.90;99.90
49236;DHT22;35067;48.134;8.378;2023-05-29T01:37:12;10.40;95.10
49236;DHT22;35067;48.134;8.378;2023-05-29T01:38:13;9.70;95.00
49236;DHT22;35067;48.134;8.378;2023-05-29T01:39:15;9.80;99.90
49236;DHT22;35067;48.134;8.378;2023-05-29T01:40:16;9.70;99.90
49236;DHT22;35067;48.134;8.378;2023-05-29T01:41:20;9.60;94.90
49236;DHT22;35067;48.134;8.378;2023-05-29T01:42:23;9.60;95.00
49236;DHT22;35067;48.134;8.378;2023-05-29T01:43:23;9.60;95.20
49236;DHT22;35067;48.134;8.378;2023-05-29T01:44:25;10.00;95.40
49236;DHT22;35067;48.134;8.378;2023-05-29T01:45:26;9.90;95.30
49236;DHT22;35067;48.134;8.378;2023-05-29T01:46:27;9.60;95.30
49236;DHT22;35067;48.134;8.378;2023-05-29T01:47:29;9.60;95.20
49236;DHT22;35067;48.134;8.378;2023-05-29T01:48:30;9.60;95.30
49236;DHT22;35067;48.134;8.378;2023-05-29T01:49:31;9.60;95.70
49236;DHT22;35067;48.134;8.378;2023-05-29T01:50:32;9.60;95.60
49236;DHT22;35067;48.134;8.378;2023-05-29T01:51:34;9.50;95.30
49236;DHT22;35067;48.134;8.378;2023-05-29T01:52:35;9.60;95.60
49236;DHT22;35067;48.134;8.378;2023-05-29T01:53:37;9.50;95.50
49236;DHT22;35067;48.134;8.378;2023-05-29T01:54:38;9.50;95.50
49236;DHT22;35067;48.134;8.378;2023-05-29T01:55:39;9.50;95.40
49236;DHT22;35067;48.134;8.378;2023-05-29T01:56:41;9.60;95.40
49236;DHT22;35067;48.134;8.378;2023-05-29T01:57:43;9.70;95.40
49236;DHT22;35067;48.134;8.378;2023-05-29T01:58:44;9.60;95.10
49236;DHT22;35067;48.134;8.378;2023-05-29T01:59:46;9.60;95.00
49236;DHT22;35067;48.134;8.378;2023-05-29T02:01:51;9.60;94.20
49236;DHT22;35067;48.134;8.378;2023-05-29T02:02:52;9.60;94.70
49236;DHT22;35067;48.134;8.378;2023-05-29T02:03:52;9.60;94.70
49236;DHT22;35067;48.134;8.378;2023-05-29T02:04:54;9.60;94.70
49236;DHT22;35067;48.134;8.378;2023-05-29T02:05:58;9.50;94.80
49236;DHT22;35067;48.134;8.378;2023-05-29T02:07:00;9.60;98.80
49236;DHT22;35067;48.134;8.378;2023-05-29T02:08:00;9.50;94.90
49236;DHT22;35067;48.134;8.378;2023-05-29T02:09:03;9.60;99.90
49236;DHT22;35067;48.134;8.378;2023-05-29T02:10:06;9.60;99.90
49236;DHT22;35067;48.134;8.378;2023-05-29T02:11:08;9.50;95.00
49236;DHT22;35067;48.134;8.378;2023-05-29T02:12:09;9.50;99.90
49236;DHT22;35067;48.134;8.378;2023-05-29T02:13:09;9.20;99.90
49236;DHT22;35067;48.134;8.378;2023-05-29T02:14:10;9.40;99.90
49236;DHT22;35067;48.134;8.378;2023-05-29T02:15:12;9.50;94.80
49236;DHT22;35067;48.134;8.378;2023-05-29T02:16:13;9.50;94.90
49236;DHT22;35067;48.134;8.378;2023-05-29T02:17:17;9.70;99.90
49236;DHT22;35067;48.134;8.378;2023-05-29T02:18:21;9.80;99.90
49236;DHT22;35067;48.134;8.378;2023-05-29T02:19:21;9.50;99.90
49236;DHT22;35067;48.134;8.378;2023-05-29T02:20:25;9.40;95.10
49236;DHT22;35067;48.134;8.378;2023-05-29T02:21:26;9.40;95.00
49236;DHT22;35067;48.134;8.378;2023-05-29T02:22:27;9.30;95.00
49236;DHT22;35067;48.134;8.378;2023-05-29T02:24:29;9.30;95.20
49236;DHT22;35067;48.134;8.378;2023-05-29T02:25:30;9.30;95.60
49236;DHT22;35067;48.134;8.378;2023-05-29T02:26:31;9.20;95.50
49236;DHT22;35067;48.134;8.378;2023-05-29T02:27:33;9.20;95.60
49236;DHT22;35067;48.134;8.378;2023-05-29T02:28:35;9.20;95.80
49236;DHT22;35067;48.134;8.378;2023-05-29T02:29:37;9.20;95.70
49236;DHT22;35067;48.134;8.378;2023-05-29T02:30:37;9.30;95.80
49236;DHT22;35067;48.134;8.378;2023-05-29T02:31:38;9.20;95.70
49236;DHT22;35067;48.134;8.378;2023-05-29T02:32:39;9.20;96.00
49236;DHT22;35067;48.134;8.378;2023-05-29T02:33:40;9.10;96.10
49236;DHT22;35067;48.134;8.378;2023-05-29T02:34:42;9.20;96.30
49236;DHT22;35067;48.134;8.378;2023-05-29T02:35:43;8.90;96.30
49236;DHT22;35067;48.134;8.378;2023-05-29T02:36:44;9.00;96.50
49236;DHT22;35067;48.134;8.378;2023-05-29T02:37:44;8.90;96.60
49236;DHT22;35067;48.134;8.378;2023-05-29T02:38:45;9.00;96.70
49236;DHT22;35067;48.134;8.378;2023-05-29T02:39:47;9.00;96.60
49236;DHT22;35067;48.134;8.378;2023-05-29T02:40:47;9.00;96.70
49236;DHT22;35067;48.134;8.378;2023-05-29T02:41:48;8.90;96.90
49236;DHT22;35067;48.134;8.378;2023-05-29T02:42:49;8.90;97.20
49236;DHT22;35067;48.134;8.378;2023-05-29T02:43:50;8.90;97.30
49236;DHT22;35067;48.134;8.378;2023-05-29T02:44:51;8.90;97.20
49236;DHT22;35067;48.134;8.378;2023-05-29T02:45:52;9.00;97.20
49236;DHT22;35067;48.134;8.378;2023-05-29T02:46:53;8.80;97.30
49236;DHT22;35067;48.134;8.378;2023-05-29T02:47:53;9.40;97.30
49236;DHT22;35067;48.134;8.378;2023-05-29T02:48:54;9.00;97.00
49236;DHT22;35067;48.134;8.378;2023-05-29T02:49:57;8.90;97.20
49236;DHT22;35067;48.134;8.378;2023-05-29T02:50:57;8.90;97.10
49236;DHT22;35067;48.134;8.378;2023-05-29T02:51:58;8.90;97.10
49236;DHT22;35067;48.134;8.378;2023-05-29T02:52:59;8.90;97.40
49236;DHT22;35067;48.134;8.378;2023-05-29T02:54:01;9.00;99.90
49236;DHT22;35067;48.134;8.378;2023-05-29T02:55:03;8.80;97.30
49236;DHT22;35067;48.134;8.378;2023-05-29T02:56:05;8.90;99.90
49236;DHT22;35067;48.134;8.378;2023-05-29T02:57:06;8.80;97.30
49236;DHT22;35067;48.134;8.378;2023-05-29T02:58:07;8.80;97.20
49236;DHT22;35067;48.134;8.378;2023-05-29T02:59:08;8.90;97.20
49236;DHT22;35067;48.134;8.378;2023-05-29T03:00:09;9.10;97.10
49236;DHT22;35067;48.134;8.378;2023-05-29T03:01:11;8.80;99.90
49236;DHT22;35067;48.134;8.378;2023-05-29T03:02:12;8.80;97.00
49236;DHT22;35067;48.134;8.378;2023-05-29T03:03:14;8.90;97.30
49236;DHT22;35067;48.134;8.378;2023-05-29T03:04:16;8.70;99.90
49236;DHT22;35067;48.134;8.378;2023-05-29T03:05:19;8.80;97.30
49236;DHT22;35067;48.134;8.378;2023-05-29T03:06:20;8.70;97.70
49236;DHT22;35067;48.134;8.378;2023-05-29T03:07:21;8.80;97.20
49236;DHT22;35067;48.134;8.378;2023-05-29T03:08:24;9.10;97.30
49236;DHT22;35067;48.134;8.378;2023-05-29T03:09:26;8.80;97.20
49236;DHT22;35067;48.134;8.378;2023-05-29T03:10:26;8.70;97.20
49236;DHT22;35067;48.134;8.378;2023-05-29T03:11:27;8.60;97.10
49236;DHT22;35067;48.134;8.378;2023-05-29T03:12:29;9.00;97.30
49236;DHT22;35067;48.134;8.378;2023-05-29T03:13:29;8.70;97.30
49236;DHT22;35067;48.134;8.378;2023-05-29T03:14:32;8.80;97.50
49236;DHT22;35067;48.134;8.378;2023-05-29T03:15:36;8.60;97.60
49236;DHT22;35067;48.134;8.378;2023-05-29T03:16:38;8.60;97.80
49236;DHT22;35067;48.134;8.378;2023-05-29T03:17:40;8.60;97.80
49236;DHT22;35067;48.134;8.378;2023-05-29T03:18:41;8.60;97.80
49236;DHT22;35067;48.134;8.378;2023-05-29T03:19:42;8.60;98.10
49236;DHT22;35067;48.134;8.378;2023-05-29T03:20:44;8.60;98.20
49236;DHT22;35067;48.134;8.378;2023-05-29T03:21:45;8.50;98.00
49236;DHT22;35067;48.134;8.378;2023-05-29T03:22:46;8.50;98.10
49236;DHT22;35067;48.134;8.378;2023-05-29T03:23:47;8.50;98.10
49236;DHT22;35067;48.134;8.378;2023-05-29T03:24:48;8.50;98.10
49236;DHT22;35067;48.134;8.378;2023-05-29T03:25:50;8.90;98.10
49236;DHT22;35067;48.134;8.378;2023-05-29T03:26:50;8.50;98.00
49236;DHT22;35067;48.134;8.378;2023-05-29T03:27:52;8.90;98.10
49236;DHT22;35067;48.134;8.378;2023-05-29T03:28:53;8.50;98.00
49236;DHT22;35067;48.134;8.378;2023-05-29T03:29:58;8.50;97.90
49236;DHT22;35067;48.134;8.378;2023-05-29T03:30:59;8.40;98.60
49236;DHT22;35067;48.134;8.378;2023-05-29T03:32:00;8.10;99.90
49236;DHT22;35067;48.134;8.378;2023-05-29T03:33:01;8.30;98.60
49236;DHT22;35067;48.134;8.378;2023-05-29T03:34:03;8.10;99.90
49236;DHT22;35067;48.134;8.378;2023-05-29T03:35:04;8.40;99.90
49236;DHT22;35067;48.134;8.378;2023-05-29T03:36:06;8.70;99.90
49236;DHT22;35067;48.134;8.378;2023-05-29T03:37:08;8.30;99.10
49236;DHT22;35067;48.134;8.378;2023-05-29T03:38:09;8.50;99.90
49236;DHT22;35067;48.134;8.378;2023-05-29T03:39:10;8.20;99.90
49236;DHT22;35067;48.134;8.378;2023-05-29T03:40:11;8.30;99.30
49236;DHT22;35067;48.134;8.378;2023-05-29T03:41:12;8.50;99.90
49236;DHT22;35067;48.134;8.378;2023-05-29T03:42:14;8.40;99.00
49236;DHT22;35067;48.134;8.378;2023-05-29T03:43:15;8.50;99.90
49236;DHT22;35067;48.134;8.378;2023-05-29T03:44:16;8.60;99.90
49236;DHT22;35067;48.134;8.378;2023-05-29T03:45:17;8.60;99.90
49236;DHT22;35067;48.134;8.378;2023-05-29T03:46:19;8.50;98.70
49236;DHT22;35067;48.134;8.378;2023-05-29T03:47:20;8.60;98.50
49236;DHT22;35067;48.134;8.378;2023-05-29T03:48:22;8.70;98.20
49236;DHT22;35067;48.134;8.378;2023-05-29T03:49:22;8.70;98.10
49236;DHT22;35067;48.134;8.378;2023-05-29T03:50:23;8.70;98.00
49236;DHT22;35067;48.134;8.378;2023-05-29T03:51:26;8.70;98.10
49236;DHT22;35067;48.134;8.378;2023-05-29T03:52:26;8.60;98.00
49236;DHT22;35067;48.134;8.378;2023-05-29T03:53:27;8.70;98.10
49236;DHT22;35067;48.134;8.378;2023-05-29T03:54:29;8.80;98.00
49236;DHT22;35067;48.134;8.378;2023-05-29T03:55:31;8.70;98.00
49236;DHT22;35067;48.134;8.378;2023-05-29T03:56:32;8.70;98.10
49236;DHT22;35067;48.134;8.378;2023-05-29T03:57:33;8.70;98.30
49236;DHT22;35067;48.134;8.378;2023-05-29T03:58:35;8.80;98.00
49236;DHT22;35067;48.134;8.378;2023-05-29T03:59:36;8.80;97.90
49236;DHT22;35067;48.134;8.378;2023-05-29T04:00:37;8.80;97.90
49236;DHT22;35067;48.134;8.378;2023-05-29T04:01:39;8.80;97.80
49236;DHT22;35067;48.134;8.378;2023-05-29T04:02:40;8.80;97.90
49236;DHT22;35067;48.134;8.378;2023-05-29T04:03:41;8.70;98.00
49236;DHT22;35067;48.134;8.378;2023-05-29T04:04:44;8.70;97.80
49236;DHT22;35067;48.134;8.378;2023-05-29T04:05:45;8.70;97.90
49236;DHT22;35067;48.134;8.378;2023-05-29T04:06:45;9.00;97.80
49236;DHT22;35067;48.134;8.378;2023-05-29T04:07:46;8.80;97.60
49236;DHT22;35067;48.134;8.378;2023-05-29T04:08:47;8.70;97.50
49236;DHT22;35067;48.134;8.378;2023-05-29T04:09:48;8.70;97.50
49236;DHT22;35067;48.134;8.378;2023-05-29T04:10:48;8.70;97.70
49236;DHT22;35067;48.134;8.378;2023-05-29T04:11:50;9.00;97.90
49236;DHT22;35067;48.134;8.378;2023-05-29T04:12:52;8.70;97.80
49236;DHT22;35067;48.134;8.378;2023-05-29T04:13:53;8.80;97.80
49236;DHT22;35067;48.134;8.378;2023-05-29T04:14:53;8.80;97.50
49236;DHT22;35067;48.134;8.378;2023-05-29T04:15:54;8.80;97.20
49236;DHT22;35067;48.134;8.378;2023-05-29T04:16:55;9.10;97.50
49236;DHT22;35067;48.134;8.378;2023-05-29T04:17:56;9.10;97.60
49236;DHT22;35067;48.134;8.378;2023-05-29T04:18:57;8.70;97.50
49236;DHT22;35067;48.134;8.378;2023-05-29T04:19:58;8.70;97.60
49236;DHT22;35067;48.134;8.378;2023-05-29T04:22:01;8.90;99.90
49236;DHT22;35067;48.134;8.378;2023-05-29T04:23:01;8.70;99.90
49236;DHT22;35067;48.134;8.378;2023-05-29T04:24:02;8.50;99.90
49236;DHT22;35067;48.134;8.378;2023-05-29T04:25:06;8.80;99.90
49236;DHT22;35067;48.134;8.378;2023-05-29T04:26:07;8.80;97.70
49236;DHT22;35067;48.134;8.378;2023-05-29T04:27:09;8.80;97.60
49236;DHT22;35067;48.134;8.378;2023-05-29T04:28:13;8.80;97.50
49236;DHT22;35067;48.134;8.378;2023-05-29T04:29:14;8.90;97.30
49236;DHT22;35067;48.134;8.378;2023-05-29T04:30:16;9.30;99.90
49236;DHT22;35067;48.134;8.378;2023-05-29T04:31:17;8.80;97.20
49236;DHT22;35067;48.134;8.378;2023-05-29T04:32:19;8.90;99.90
49236;DHT22;35067;48.134;8.378;2023-05-29T04:33:21;8.80;97.50
49236;DHT22;35067;48.134;8.378;2023-05-29T04:34:23;8.90;97.60
49236;DHT22;35067;48.134;8.378;2023-05-29T04:35:24;8.90;98.00
49236;DHT22;35067;48.134;8.378;2023-05-29T04:36:25;8.80;98.30
49236;DHT22;35067;48.134;8.378;2023-05-29T04:37:27;8.80;98.50
49236;DHT22;35067;48.134;8.378;2023-05-29T04:38:29;8.80;98.30
49236;DHT22;35067;48.134;8.378;2023-05-29T04:39:30;8.80;98.10
49236;DHT22;35067;48.134;8.378;2023-05-29T04:40:31;8.80;98.00
49236;DHT22;35067;48.134;8.378;2023-05-29T04:41:33;8.90;97.90
49236;DHT22;35067;48.134;8.378;2023-05-29T04:42:34;8.90;97.50
49236;DHT22;35067;48.134;8.378;2023-05-29T04:43:36;9.00;97.70
49236;DHT22;35067;48.134;8.378;2023-05-29T04:44:38;9.00;97.70
49236;DHT22;35067;48.134;8.378;2023-05-29T04:45:39;9.00;97.90
49236;DHT22;35067;48.134;8.378;2023-05-29T04:46:42;9.00;97.90
49236;DHT22;35067;48.134;8.378;2023-05-29T04:47:44;9.00;98.00
49236;DHT22;35067;48.134;8.378;2023-05-29T04:48:45;8.90;98.30
49236;DHT22;35067;48.134;8.378;2023-05-29T04:49:47;8.90;98.20
49236;DHT22;35067;48.134;8.378;2023-05-29T04:50:49;9.00;98.00
49236;DHT22;35067;48.134;8.378;2023-05-29T04:51:51;9.00;97.70
49236;DHT22;35067;48.134;8.378;2023-05-29T04:52:53;9.10;98.00
49236;DHT22;35067;48.134;8.378;2023-05-29T04:53:56;9.10;97.70
49236;DHT22;35067;48.134;8.378;2023-05-29T04:54:57;9.00;98.00
49236;DHT22;35067;48.134;8.378;2023-05-29T04:55:58;9.00;98.30
49236;DHT22;35067;48.134;8.378;2023-05-29T04:57:00;9.20;98.30
49236;DHT22;35067;48.134;8.378;2023-05-29T04:58:01;9.10;99.90
49236;DHT22;35067;48.134;8.378;2023-05-29T04:59:02;8.90;98.20
49236;DHT22;35067;48.134;8.378;2023-05-29T05:00:04;9.50;99.90
49236;DHT22;35067;48.134;8.378;2023-05-29T05:01:14;9.00;99.90
49236;DHT22;35067;48.134;8.378;2023-05-29T05:02:15;9.00;99.90
49236;DHT22;35067;48.134;8.378;2023-05-29T05:03:15;9.30;99.90
49236;DHT22;35067;48.134;8.378;2023-05-29T05:04:17;9.20;99.90
49236;DHT22;35067;48.134;8.378;2023-05-29T05:05:18;9.40;99.90
49236;DHT22;35067;48.134;8.378;2023-05-29T05:06:19;9.30;98.40
49236;DHT22;35067;48.134;8.378;2023-05-29T05:07:20;9.40;98.30
49236;DHT22;35067;48.134;8.378;2023-05-29T05:08:23;9.50;97.90
49236;DHT22;35067;48.134;8.378;2023-05-29T05:09:24;9.60;97.40
49236;DHT22;35067;48.134;8.378;2023-05-29T05:10:25;9.70;96.90
49236;DHT22;35067;48.134;8.378;2023-05-29T05:11:26;9.80;96.90
49236;DHT22;35067;48.134;8.378;2023-05-29T05:12:26;10.00;96.90
49236;DHT22;35067;48.134;8.378;2023-05-29T05:13:27;9.80;96.80
49236;DHT22;35067;48.134;8.378;2023-05-29T05:14:28;9.90;96.60
49236;DHT22;35067;48.134;8.378;2023-05-29T05:15:28;9.90;96.40
49236;DHT22;35067;48.134;8.378;2023-05-29T05:16:29;9.90;96.30
49236;DHT22;35067;48.134;8.378;2023-05-29T05:17:30;9.90;96.40
49236;DHT22;35067;48.134;8.378;2023-05-29T05:18:31;10.00;96.50
49236;DHT22;35067;48.134;8.378;2023-05-29T05:19:32;10.30;96.30
49236;DHT22;35067;48.134;8.378;2023-05-29T05:20:32;10.20;95.90
49236;DHT22;35067;48.134;8.378;2023-05-29T05:21:33;10.20;95.60
49236;DHT22;35067;48.134;8.378;2023-05-29T05:22:34;10.20;95.70
49236;DHT22;35067;48.134;8.378;2023-05-29T05:23:35;10.20;95.70
49236;DHT22;35067;48.134;8.378;2023-05-29T05:24:35;10.20;95.80
49236;DHT22;35067;48.134;8.378;2023-05-29T05:25:36;10.20;96.00
49236;DHT22;35067;48.134;8.378;2023-05-29T05:26:38;10.20;96.00
49236;DHT22;35067;48.134;8.378;2023-05-29T05:27:40;10.20;96.10
49236;DHT22;35067;48.134;8.378;2023-05-29T05:28:42;10.20;96.00
49236;DHT22;35067;48.134;8.378;2023-05-29T05:29:43;10.30;95.90
49236;DHT22;35067;48.134;8.378;2023-05-29T05:30:43;10.30;95.70
49236;DHT22;35067;48.134;8.378;2023-05-29T05:31:44;10.30;95.70
49236;DHT22;35067;48.134;8.378;2023-05-29T05:32:45;10.40;95.80
49236;DHT22;35067;48.134;8.378;2023-05-29T05:33:46;10.40;95.50
49236;DHT22;35067;48.134;8.378;2023-05-29T05:34:47;10.40;95.30
49236;DHT22;35067;48.134;8.378;2023-05-29T05:35:47;10.50;95.30
49236;DHT22;35067;48.134;8.378;2023-05-29T05:36:48;10.60;95.20
49236;DHT22;35067;48.134;8.378;2023-05-29T05:37:49;10.50;95.00
49236;DHT22;35067;48.134;8.378;2023-05-29T05:38:50;10.60;94.90
49236;DHT22;35067;48.134;8.378;2023-05-29T05:39:51;10.60;94.60
49236;DHT22;35067;48.134;8.378;2023-05-29T05:40:53;10.60;94.80
49236;DHT22;35067;48.134;8.378;2023-05-29T05:41:54;10.90;94.50
49236;DHT22;35067;48.134;8.378;2023-05-29T05:42:55;11.50;94.80
49236;DHT22;35067;48.134;8.378;2023-05-29T05:43:57;10.70;94.80
49236;DHT22;35067;48.134;8.378;2023-05-29T05:45:00;10.70;94.60
49236;DHT22;35067;48.134;8.378;2023-05-29T05:46:02;10.80;94.40
49236;DHT22;35067;48.134;8.378;2023-05-29T05:47:03;10.70;99.90
49236;DHT22;35067;48.134;8.378;2023-05-29T05:48:04;10.90;99.90
49236;DHT22;35067;48.134;8.378;2023-05-29T05:49:05;11.10;99.90
49236;DHT22;35067;48.134;8.378;2023-05-29T05:50:06;10.90;94.00
49236;DHT22;35067;48.134;8.378;2023-05-29T05:51:08;11.00;99.90
49236;DHT22;35067;48.134;8.378;2023-05-29T05:52:09;11.00;99.90
49236;DHT22;35067;48.134;8.378;2023-05-29T05:53:10;11.20;99.90
49236;DHT22;35067;48.134;8.378;2023-05-29T05:54:12;11.20;99.90
49236;DHT22;35067;48.134;8.378;2023-05-29T05:55:13;11.10;99.90
49236;DHT22;35067;48.134;8.378;2023-05-29T05:56:14;11.10;92.90
49236;DHT22;35067;48.134;8.378;2023-05-29T05:57:16;11.20;93.50
49236;DHT22;35067;48.134;8.378;2023-05-29T05:58:16;11.20;93.10
49236;DHT22;35067;48.134;8.378;2023-05-29T05:59:17;11.90;92.60
49236;DHT22;35067;48.134;8.378;2023-05-29T06:00:18;11.40;93.00
49236;DHT22;35067;48.134;8.378;2023-05-29T06:01:19;11.40;93.00
49236;DHT22;35067;48.134;8.378;2023-05-29T06:02:22;11.50;93.00
49236;DHT22;35067;48.134;8.378;2023-05-29T06:03:23;11.60;93.20
49236;DHT22;35067;48.134;8.378;2023-05-29T06:04:25;11.60;92.30
49236;DHT22;35067;48.134;8.378;2023-05-29T06:05:26;11.60;91.70
49236;DHT22;35067;48.134;8.378;2023-05-29T06:06:27;11.70;92.30
49236;DHT22;35067;48.134;8.378;2023-05-29T06:07:27;11.70;91.00
49236;DHT22;35067;48.134;8.378;2023-05-29T06:08:29;11.90;91.40
49236;DHT22;35067;48.134;8.378;2023-05-29T06:09:30;11.80;91.60
49236;DHT22;35067;48.134;8.378;2023-05-29T06:10:31;11.80;90.90
49236;DHT22;35067;48.134;8.378;2023-05-29T06:11:32;12.00;89.50
49236;DHT22;35067;48.134;8.378;2023-05-29T06:12:33;12.00;89.40
49236;DHT22;35067;48.134;8.378;2023-05-29T06:13:35;12.00;89.10
49236;DHT22;35067;48.134;8.378;2023-05-29T06:14:36;12.40;88.00
49236;DHT22;35067;48.134;8.378;2023-05-29T06:15:37;12.20;89.10
49236;DHT22;35067;48.134;8.378;2023-05-29T06:16:38;12.20;88.70
49236;DHT22;35067;48.134;8.378;2023-05-29T06:17:39;12.20;89.20
49236;DHT22;35067;48.134;8.378;2023-05-29T06:18:40;12.30;89.10
49236;DHT22;35067;48.134;8.378;2023-05-29T06:19:40;12.30;88.00
49236;DHT22;35067;48.134;8.378;2023-05-29T06:20:42;12.40;86.00
49236;DHT22;35067;48.134;8.378;2023-05-29T06:21:44;12.50;87.50
49236;DHT22;35067;48.134;8.378;2023-05-29T06:22:47;12.50;87.40
49236;DHT22;35067;48.134;8.378;2023-05-29T06:23:50;12.50;88.60
49236;DHT22;35067;48.134;8.378;2023-05-29T06:24:51;12.50;89.80
49236;DHT22;35067;48.134;8.378;2023-05-29T06:25:52;12.40;96.70
49236;DHT22;35067;48.134;8.378;2023-05-29T06:26:53;12.60;87.60
49236;DHT22;35067;48.134;8.378;2023-05-29T06:27:54;12.80;89.20
49236;DHT22;35067;48.134;8.378;2023-05-29T06:28:55;12.80;87.20
49236;DHT22;35067;48.134;8.378;2023-05-29T06:29:57;12.90;87.00
49236;DHT22;35067;48.134;8.378;2023-05-29T06:30:58;13.00;87.00
49236;DHT22;35067;48.134;8.378;2023-05-29T06:31:59;13.10;87.80
49236;DHT22;35067;48.134;8.378;2023-05-29T06:33:00;13.00;87.10
49236;DHT22;35067;48.134;8.378;2023-05-29T06:34:02;13.30;94.70
49236;DHT22;35067;48.134;8.378;2023-05-29T06:35:04;13.60;94.60
49236;DHT22;35067;48.134;8.378;2023-05-29T06:36:06;13.30;86.10
49236;DHT22;35067;48.134;8.378;2023-05-29T06:37:07;13.40;85.10
49236;DHT22;35067;48.134;8.378;2023-05-29T06:38:09;13.60;94.20
49236;DHT22;35067;48.134;8.378;2023-05-29T06:39:11;13.70;93.50
49236;DHT22;35067;48.134;8.378;2023-05-29T06:40:13;13.60;83.60
49236;DHT22;35067;48.134;8.378;2023-05-29T06:41:14;13.70;83.50
49236;DHT22;35067;48.134;8.378;2023-05-29T06:42:15;13.80;92.10
49236;DHT22;35067;48.134;8.378;2023-05-29T06:43:16;13.90;81.60
49236;DHT22;35067;48.134;8.378;2023-05-29T06:44:17;14.00;92.10
49236;DHT22;35067;48.134;8.378;2023-05-29T06:45:18;14.10;92.30